Time Latitude Longitude Accuracy (66% radius in meters) Altitude (meters) Speed (km/hour) Bearing (degrees) Battery (%) GPS flag
08:35:27 56.388220 43.734865 3.2000000476837 74.7 0 288.5299987793 93 1 delete
08:35:21 56.388223 43.734820 4.6999998092651 74.7 0 288.5299987793 93 1 delete
08:35:14 56.388192 43.735323 6 74.6 0 288.5299987793 93 1 delete
08:35:10 56.388133 43.735335 9.1000003814697 74.6 0.76950973272324 321.57000732422 93 1 delete
08:34:29 56.388268 43.734840 2.7000000476837 75.8 0 49.220001220703 94 1 delete
08:34:19 56.388268 43.734840 2.9000000953674 75.8 0 49.220001220703 94 1 delete
08:34:07 56.388268 43.734840 3.5 75.8 0 49.220001220703 94 1 delete
08:33:57 56.388268 43.734840 3.4000000953674 75.8 0 49.220001220703 94 1 delete
08:33:46 56.388268 43.734840 3.2999999523163 75.8 0 49.220001220703 94 1 delete
08:33:35 56.388268 43.734840 3.2999999523163 75.8 0 49.220001220703 94 1 delete
08:33:25 56.388268 43.734840 4 75.8 0 49.220001220703 94 1 delete
08:33:13 56.388268 43.734840 3.4000000953674 75.8 0 49.220001220703 94 1 delete
08:33:03 56.388268 43.734840 3.5 75.8 0 49.220001220703 94 1 delete
08:32:52 56.388268 43.734840 2.7000000476837 75.8 0 49.220001220703 94 1 delete
08:32:41 56.388268 43.734840 2.7999999523163 75.8 0 49.220001220703 94 1 delete
08:32:31 56.388268 43.734840 2.5 75.8 0 49.220001220703 94 1 delete
08:32:19 56.388268 43.734840 2.5 75.8 0 49.220001220703 94 1 delete
08:32:09 56.388268 43.734840 2.7000000476837 75.8 0 49.220001220703 94 1 delete
08:31:57 56.388268 43.734840 2.7000000476837 75.8 0 49.220001220703 94 1 delete
08:31:46 56.388268 43.734840 2.5999999046326 75.8 0 49.220001220703 94 1 delete
08:31:36 56.388268 43.734840 2.4000000953674 75.8 0 49.220001220703 94 1 delete
08:31:25 56.388227 43.734808 2.5 76.7 0 143.58000183105 94 1 delete
08:31:13 56.388227 43.734808 2.7000000476837 76.7 0 143.58000183105 94 1 delete
08:31:03 56.388312 43.734860 2.7000000476837 74.4 0 89.650001525879 94 1 delete
08:30:53 56.388312 43.734860 2.5999999046326 74.4 0 89.650001525879 94 1 delete
08:30:41 56.388312 43.734860 2.7000000476837 74.4 0 89.650001525879 94 1 delete
08:30:29 56.388312 43.734860 2.7999999523163 74.4 0 89.650001525879 94 1 delete
08:30:20 56.388312 43.734860 2.7999999523163 74.4 0 89.650001525879 94 1 delete
08:30:09 56.388312 43.734860 2.7000000476837 74.4 0 89.650001525879 94 1 delete
08:29:57 56.388312 43.734860 2.7999999523163 74.4 0 89.650001525879 94 1 delete
08:29:47 56.388312 43.734860 2.7999999523163 74.4 0 89.650001525879 94 1 delete
08:29:36 56.388293 43.734907 2.9000000953674 74.5 0.62075501680374 89.650001525879 94 1 delete
08:29:25 56.388290 43.734972 3.2999999523163 74.8 1.0809166431427 89.650001525879 94 1 delete
08:29:21 56.388293 43.734903 3.5999999046326 74.7 1.9018986225128 88.610000610352 94 1 delete
08:29:15 56.388277 43.734723 2.5999999046326 74.4 0 258.64001464844 94 1 delete
08:29:13 56.388275 43.734712 2.5999999046326 74.2 0 258.64001464844 94 1 delete
08:29:03 56.388252 43.734653 2.5999999046326 74.5 0.46788251399994 258.64001464844 94 1 delete
08:28:51 56.388228 43.734602 2.5 74.5 0 258.64001464844 94 1 delete
08:28:41 56.388258 43.734507 2.5 74.8 0 258.64001464844 94 1 delete
08:28:29 56.388263 43.734493 2.5999999046326 75 0 258.64001464844 94 1 delete
08:28:18 56.388243 43.734572 2.7000000476837 76.3 0 258.64001464844 94 1 delete
08:28:07 56.388243 43.734572 3 76.3 0 258.64001464844 94 1 delete
08:27:57 56.388243 43.734567 3.2999999523163 76.4 0 258.64001464844 94 1 delete
08:27:54 56.388245 43.734572 4 76.1 0 258.64001464844 94 1 delete
08:27:47 56.388232 43.734735 4.0999999046326 76.2 0 259.54998779297 94 1 delete
08:27:34 56.388260 43.734887 5.5 76.9 0 308.5 94 1 delete
08:27:24 56.388258 43.734902 5.3000001907349 76.3 0.48898610472679 308.5 94 1 delete
08:27:13 56.388222 43.734887 4.9000000953674 76.4 0 308.5 94 1 delete
08:27:03 56.388225 43.734913 3.9000000953674 75.4 0 308.5 94 1 delete
08:27:01 56.388215 43.734947 3.7999999523163 75.2 0 311.23001098633 94 1 delete